sensor_id;sensor_type;location;lat;lon;timestamp;temperature;humidity
45283;DHT22;31023;44.994;1.796;2023-07-31T00:01:13;16.90;86.70
45283;DHT22;31023;44.994;1.796;2023-07-31T00:03:39;16.80;86.50
45283;DHT22;31023;44.994;1.796;2023-07-31T00:06:04;16.90;86.50
45283;DHT22;31023;44.994;1.796;2023-07-31T00:08:30;16.80;86.70
45283;DHT22;31023;44.994;1.796;2023-07-31T00:10:56;16.80;86.90
45283;DHT22;31023;44.994;1.796;2023-07-31T00:13:21;16.80;86.80
45283;DHT22;31023;44.994;1.796;2023-07-31T00:15:47;16.80;87.10
45283;DHT22;31023;44.994;1.796;2023-07-31T00:18:13;16.60;87.60
45283;DHT22;31023;44.994;1.796;2023-07-31T00:20:39;16.50;87.90
45283;DHT22;31023;44.994;1.796;2023-07-31T00:23:05;16.50;88.30
45283;DHT22;31023;44.994;1.796;2023-07-31T00:25:30;16.50;88.50
45283;DHT22;31023;44.994;1.796;2023-07-31T00:27:56;16.40;88.90
45283;DHT22;31023;44.994;1.796;2023-07-31T00:30:22;16.30;89.30
45283;DHT22;31023;44.994;1.796;2023-07-31T00:32:48;16.30;89.70
45283;DHT22;31023;44.994;1.796;2023-07-31T00:35:13;16.30;90.00
45283;DHT22;31023;44.994;1.796;2023-07-31T00:37:39;16.40;89.60
45283;DHT22;31023;44.994;1.796;2023-07-31T00:40:05;16.30;89.80
45283;DHT22;31023;44.994;1.796;2023-07-31T00:42:31;16.30;89.90
45283;DHT22;31023;44.994;1.796;2023-07-31T00:44:57;16.20;89.90
45283;DHT22;31023;44.994;1.796;2023-07-31T00:47:22;16.20;90.00
45283;DHT22;31023;44.994;1.796;2023-07-31T00:49:48;16.20;90.00
45283;DHT22;31023;44.994;1.796;2023-07-31T00:52:14;16.20;90.00
45283;DHT22;31023;44.994;1.796;2023-07-31T00:54:40;16.20;89.90
45283;DHT22;31023;44.994;1.796;2023-07-31T00:57:05;16.10;90.00
45283;DHT22;31023;44.994;1.796;2023-07-31T00:59:33;16.10;90.20
45283;DHT22;31023;44.994;1.796;2023-07-31T01:01:59;16.00;90.50
45283;DHT22;31023;44.994;1.796;2023-07-31T01:04:25;15.90;90.70
45283;DHT22;31023;44.994;1.796;2023-07-31T01:09:55;15.90;90.90
45283;DHT22;31023;44.994;1.796;2023-07-31T01:12:24;15.90;90.80
45283;DHT22;31023;44.994;1.796;2023-07-31T01:15:11;15.90;90.70
45283;DHT22;31023;44.994;1.796;2023-07-31T01:17:41;15.80;91.10
45283;DHT22;31023;44.994;1.796;2023-07-31T01:20:22;15.70;91.30
45283;DHT22;31023;44.994;1.796;2023-07-31T01:28:10;15.60;91.30
45283;DHT22;31023;44.994;1.796;2023-07-31T01:30:41;15.70;91.30
45283;DHT22;31023;44.994;1.796;2023-07-31T01:33:09;15.70;91.10
45283;DHT22;31023;44.994;1.796;2023-07-31T01:35:36;15.70;91.20
45283;DHT22;31023;44.994;1.796;2023-07-31T01:38:02;15.70;91.20
45283;DHT22;31023;44.994;1.796;2023-07-31T01:40:27;15.70;91.30
45283;DHT22;31023;44.994;1.796;2023-07-31T01:42:53;15.60;91.60
45283;DHT22;31023;44.994;1.796;2023-07-31T01:45:19;15.60;91.60
45283;DHT22;31023;44.994;1.796;2023-07-31T01:47:45;15.60;91.50
45283;DHT22;31023;44.994;1.796;2023-07-31T01:50:11;15.70;91.40
45283;DHT22;31023;44.994;1.796;2023-07-31T01:52:36;15.50;91.70
45283;DHT22;31023;44.994;1.796;2023-07-31T01:55:02;15.40;92.20
45283;DHT22;31023;44.994;1.796;2023-07-31T01:57:28;15.20;92.80
45283;DHT22;31023;44.994;1.796;2023-07-31T01:59:53;15.10;93.30
45283;DHT22;31023;44.994;1.796;2023-07-31T02:02:20;15.00;93.60
45283;DHT22;31023;44.994;1.796;2023-07-31T02:04:46;15.00;93.60
45283;DHT22;31023;44.994;1.796;2023-07-31T02:07:12;15.10;93.70
45283;DHT22;31023;44.994;1.796;2023-07-31T02:09:38;15.00;93.60
45283;DHT22;31023;44.994;1.796;2023-07-31T02:12:04;15.10;93.60
45283;DHT22;31023;44.994;1.796;2023-07-31T02:14:29;15.30;92.80
45283;DHT22;31023;44.994;1.796;2023-07-31T02:16:55;15.20;92.90
45283;DHT22;31023;44.994;1.796;2023-07-31T02:19:21;15.00;93.60
45283;DHT22;31023;44.994;1.796;2023-07-31T02:21:46;14.90;93.90
45283;DHT22;31023;44.994;1.796;2023-07-31T02:24:12;14.90;94.00
45283;DHT22;31023;44.994;1.796;2023-07-31T02:26:38;14.90;93.80
45283;DHT22;31023;44.994;1.796;2023-07-31T02:29:03;14.80;94.10
45283;DHT22;31023;44.994;1.796;2023-07-31T02:31:29;14.80;94.30
45283;DHT22;31023;44.994;1.796;2023-07-31T02:33:55;14.80;94.30
45283;DHT22;31023;44.994;1.796;2023-07-31T02:36:20;14.80;94.60
45283;DHT22;31023;44.994;1.796;2023-07-31T02:38:46;14.70;94.70
45283;DHT22;31023;44.994;1.796;2023-07-31T02:41:12;14.70;94.80
45283;DHT22;31023;44.994;1.796;2023-07-31T02:43:37;14.70;94.70
45283;DHT22;31023;44.994;1.796;2023-07-31T02:46:03;14.70;94.60
45283;DHT22;31023;44.994;1.796;2023-07-31T02:48:28;14.70;94.50
45283;DHT22;31023;44.994;1.796;2023-07-31T02:50:54;14.80;94.20
45283;DHT22;31023;44.994;1.796;2023-07-31T02:53:20;14.60;94.50
45283;DHT22;31023;44.994;1.796;2023-07-31T02:55:46;14.50;94.80
45283;DHT22;31023;44.994;1.796;2023-07-31T02:58:11;14.50;95.00
45283;DHT22;31023;44.994;1.796;2023-07-31T03:00:44;14.40;95.20
45283;DHT22;31023;44.994;1.796;2023-07-31T03:03:10;14.30;95.40
45283;DHT22;31023;44.994;1.796;2023-07-31T03:05:36;14.40;95.40
45283;DHT22;31023;44.994;1.796;2023-07-31T03:08:02;14.40;95.50
45283;DHT22;31023;44.994;1.796;2023-07-31T03:10:28;14.40;95.20
45283;DHT22;31023;44.994;1.796;2023-07-31T03:12:53;14.50;95.00
45283;DHT22;31023;44.994;1.796;2023-07-31T03:15:19;14.50;95.00
45283;DHT22;31023;44.994;1.796;2023-07-31T03:17:45;14.50;95.20
45283;DHT22;31023;44.994;1.796;2023-07-31T03:20:11;14.40;95.20
45283;DHT22;31023;44.994;1.796;2023-07-31T03:22:36;14.50;94.80
45283;DHT22;31023;44.994;1.796;2023-07-31T03:25:05;14.40;94.80
45283;DHT22;31023;44.994;1.796;2023-07-31T03:27:31;14.40;95.00
45283;DHT22;31023;44.994;1.796;2023-07-31T03:29:57;14.30;95.20
45283;DHT22;31023;44.994;1.796;2023-07-31T03:32:23;14.30;95.20
45283;DHT22;31023;44.994;1.796;2023-07-31T03:34:49;14.40;95.10
45283;DHT22;31023;44.994;1.796;2023-07-31T03:37:15;14.20;95.40
45283;DHT22;31023;44.994;1.796;2023-07-31T03:39:40;14.10;95.80
45283;DHT22;31023;44.994;1.796;2023-07-31T03:42:06;14.10;95.70
45283;DHT22;31023;44.994;1.796;2023-07-31T03:44:32;14.10;95.70
45283;DHT22;31023;44.994;1.796;2023-07-31T03:46:58;14.00;95.90
45283;DHT22;31023;44.994;1.796;2023-07-31T03:49:23;14.00;96.10
45283;DHT22;31023;44.994;1.796;2023-07-31T03:51:49;13.90;96.20
45283;DHT22;31023;44.994;1.796;2023-07-31T03:54:15;13.90;96.50
45283;DHT22;31023;44.994;1.796;2023-07-31T03:56:41;13.90;96.50
45283;DHT22;31023;44.994;1.796;2023-07-31T03:59:06;13.80;96.70
45283;DHT22;31023;44.994;1.796;2023-07-31T04:01:32;13.80;96.70
45283;DHT22;31023;44.994;1.796;2023-07-31T04:03:58;13.70;96.70
45283;DHT22;31023;44.994;1.796;2023-07-31T04:06:23;13.70;96.60
45283;DHT22;31023;44.994;1.796;2023-07-31T04:08:49;13.60;97.40
45283;DHT22;31023;44.994;1.796;2023-07-31T04:11:15;13.50;97.70
45283;DHT22;31023;44.994;1.796;2023-07-31T04:13:40;13.50;97.90
45283;DHT22;31023;44.994;1.796;2023-07-31T04:16:06;13.50;98.20
45283;DHT22;31023;44.994;1.796;2023-07-31T04:18:32;13.40;98.20
45283;DHT22;31023;44.994;1.796;2023-07-31T04:20:58;13.40;98.60
45283;DHT22;31023;44.994;1.796;2023-07-31T04:23:24;13.30;98.60
45283;DHT22;31023;44.994;1.796;2023-07-31T04:25:50;13.30;98.80
45283;DHT22;31023;44.994;1.796;2023-07-31T04:28:16;13.20;99.30
45283;DHT22;31023;44.994;1.796;2023-07-31T04:30:42;13.30;99.20
45283;DHT22;31023;44.994;1.796;2023-07-31T04:33:07;13.30;98.70
45283;DHT22;31023;44.994;1.796;2023-07-31T04:35:33;13.30;98.70
45283;DHT22;31023;44.994;1.796;2023-07-31T04:37:59;13.20;98.70
45283;DHT22;31023;44.994;1.796;2023-07-31T04:40:24;13.20;98.90
45283;DHT22;31023;44.994;1.796;2023-07-31T04:42:50;13.20;98.70
45283;DHT22;31023;44.994;1.796;2023-07-31T04:45:16;13.30;98.80
45283;DHT22;31023;44.994;1.796;2023-07-31T04:47:42;13.30;98.40
45283;DHT22;31023;44.994;1.796;2023-07-31T04:50:08;13.30;98.10
45283;DHT22;31023;44.994;1.796;2023-07-31T04:52:34;13.50;97.80
45283;DHT22;31023;44.994;1.796;2023-07-31T04:54:59;13.60;97.30
45283;DHT22;31023;44.994;1.796;2023-07-31T04:57:25;13.70;96.80
45283;DHT22;31023;44.994;1.796;2023-07-31T04:59:51;13.90;95.80
45283;DHT22;31023;44.994;1.796;2023-07-31T05:02:16;14.20;94.90
45283;DHT22;31023;44.994;1.796;2023-07-31T05:04:42;14.50;93.90
45283;DHT22;31023;44.994;1.796;2023-07-31T05:07:08;14.80;93.10
45283;DHT22;31023;44.994;1.796;2023-07-31T05:09:33;14.50;93.40
45283;DHT22;31023;44.994;1.796;2023-07-31T05:11:59;13.90;94.70
45283;DHT22;31023;44.994;1.796;2023-07-31T05:14:25;13.90;95.40
45283;DHT22;31023;44.994;1.796;2023-07-31T05:16:51;14.10;95.40
45283;DHT22;31023;44.994;1.796;2023-07-31T05:19:17;14.20;94.80
45283;DHT22;31023;44.994;1.796;2023-07-31T05:21:43;14.30;95.40
45283;DHT22;31023;44.994;1.796;2023-07-31T05:24:10;14.90;93.20
45283;DHT22;31023;44.994;1.796;2023-07-31T05:26:36;14.70;93.80
45283;DHT22;31023;44.994;1.796;2023-07-31T05:29:01;15.00;93.20
45283;DHT22;31023;44.994;1.796;2023-07-31T05:31:27;15.10;92.70
45283;DHT22;31023;44.994;1.796;2023-07-31T05:33:53;15.20;92.70
45283;DHT22;31023;44.994;1.796;2023-07-31T05:36:19;15.20;92.40
45283;DHT22;31023;44.994;1.796;2023-07-31T05:38:45;15.50;92.30
45283;DHT22;31023;44.994;1.796;2023-07-31T05:41:13;16.70;88.40
45283;DHT22;31023;44.994;1.796;2023-07-31T05:43:39;15.40;91.00
45283;DHT22;31023;44.994;1.796;2023-07-31T05:46:05;14.90;92.70
45283;DHT22;31023;44.994;1.796;2023-07-31T05:48:32;14.80;93.60
45283;DHT22;31023;44.994;1.796;2023-07-31T05:50:59;14.80;94.70
45283;DHT22;31023;44.994;1.796;2023-07-31T05:53:25;14.40;95.20
45283;DHT22;31023;44.994;1.796;2023-07-31T05:55:51;14.70;95.50
45283;DHT22;31023;44.994;1.796;2023-07-31T05:58:16;14.60;95.50
45283;DHT22;31023;44.994;1.796;2023-07-31T06:00:42;14.60;96.10
45283;DHT22;31023;44.994;1.796;2023-07-31T06:03:08;15.00;94.90
45283;DHT22;31023;44.994;1.796;2023-07-31T06:05:33;15.20;94.00
45283;DHT22;31023;44.994;1.796;2023-07-31T06:07:59;15.20;94.00
45283;DHT22;31023;44.994;1.796;2023-07-31T06:10:25;15.80;92.40
45283;DHT22;31023;44.994;1.796;2023-07-31T06:12:51;17.30;88.80
45283;DHT22;31023;44.994;1.796;2023-07-31T06:15:16;18.30;84.40
45283;DHT22;31023;44.994;1.796;2023-07-31T06:17:44;19.20;81.20
45283;DHT22;31023;44.994;1.796;2023-07-31T06:20:10;19.90;77.10
45283;DHT22;31023;44.994;1.796;2023-07-31T06:22:36;21.00;73.20
45283;DHT22;31023;44.994;1.796;2023-07-31T06:25:02;22.20;70.50
45283;DHT22;31023;44.994;1.796;2023-07-31T06:27:28;23.50;65.60
45283;DHT22;31023;44.994;1.796;2023-07-31T06:29:54;24.00;63.80
45283;DHT22;31023;44.994;1.796;2023-07-31T06:32:19;24.60;61.30
45283;DHT22;31023;44.994;1.796;2023-07-31T06:34:45;25.40;58.50
45283;DHT22;31023;44.994;1.796;2023-07-31T06:37:11;25.60;57.90
45283;DHT22;31023;44.994;1.796;2023-07-31T06:39:36;26.20;56.90
45283;DHT22;31023;44.994;1.796;2023-07-31T06:42:03;26.00;57.20
45283;DHT22;31023;44.994;1.796;2023-07-31T06:44:29;26.40;56.40
45283;DHT22;31023;44.994;1.796;2023-07-31T06:46:55;26.50;54.80
45283;DHT22;31023;44.994;1.796;2023-07-31T06:49:20;26.30;54.00
45283;DHT22;31023;44.994;1.796;2023-07-31T06:51:46;26.30;54.60
45283;DHT22;31023;44.994;1.796;2023-07-31T06:54:12;26.50;54.40
45283;DHT22;31023;44.994;1.796;2023-07-31T06:56:37;25.70;55.50
45283;DHT22;31023;44.994;1.796;2023-07-31T06:59:06;26.50;53.50
45283;DHT22;31023;44.994;1.796;2023-07-31T07:01:32;27.30;52.10
45283;DHT22;31023;44.994;1.796;2023-07-31T07:03:58;26.80;53.40
45283;DHT22;31023;44.994;1.796;2023-07-31T07:06:23;27.70;52.60
45283;DHT22;31023;44.994;1.796;2023-07-31T07:08:49;28.60;50.90
45283;DHT22;31023;44.994;1.796;2023-07-31T07:11:14;28.00;50.40
45283;DHT22;31023;44.994;1.796;2023-07-31T07:13:40;28.00;50.10
45283;DHT22;31023;44.994;1.796;2023-07-31T07:16:06;28.10;50.20
45283;DHT22;31023;44.994;1.796;2023-07-31T07:18:32;27.80;50.90
45283;DHT22;31023;44.994;1.796;2023-07-31T07:20:57;28.00;50.70
45283;DHT22;31023;44.994;1.796;2023-07-31T07:23:23;28.00;50.50
45283;DHT22;31023;44.994;1.796;2023-07-31T07:25:49;29.00;49.10
45283;DHT22;31023;44.994;1.796;2023-07-31T07:28:15;28.90;48.00
45283;DHT22;31023;44.994;1.796;2023-07-31T07:30:41;28.60;48.80
45283;DHT22;31023;44.994;1.796;2023-07-31T07:33:06;29.00;48.60
45283;DHT22;31023;44.994;1.796;2023-07-31T07:35:35;29.30;46.60
45283;DHT22;31023;44.994;1.796;2023-07-31T07:38:02;30.70;46.20
45283;DHT22;31023;44.994;1.796;2023-07-31T07:40:28;31.20;43.70
45283;DHT22;31023;44.994;1.796;2023-07-31T07:42:54;30.90;45.80
45283;DHT22;31023;44.994;1.796;2023-07-31T07:45:19;31.10;45.60
45283;DHT22;31023;44.994;1.796;2023-07-31T07:47:45;32.30;45.00
45283;DHT22;31023;44.994;1.796;2023-07-31T07:50:11;32.70;44.00
45283;DHT22;31023;44.994;1.796;2023-07-31T07:52:36;33.00;41.70
45283;DHT22;31023;44.994;1.796;2023-07-31T07:55:03;33.10;42.70
45283;DHT22;31023;44.994;1.796;2023-07-31T07:57:29;33.30;41.60
45283;DHT22;31023;44.994;1.796;2023-07-31T07:59:55;33.90;41.40
45283;DHT22;31023;44.994;1.796;2023-07-31T08:02:22;34.10;42.30
45283;DHT22;31023;44.994;1.796;2023-07-31T08:04:48;33.90;41.30
45283;DHT22;31023;44.994;1.796;2023-07-31T08:07:14;34.30;41.00
45283;DHT22;31023;44.994;1.796;2023-07-31T08:09:39;34.30;41.60
45283;DHT22;31023;44.994;1.796;2023-07-31T08:12:06;34.50;41.30
45283;DHT22;31023;44.994;1.796;2023-07-31T08:14:32;34.60;41.10
45283;DHT22;31023;44.994;1.796;2023-07-31T08:16:57;35.20;40.00
45283;DHT22;31023;44.994;1.796;2023-07-31T08:19:23;33.40;39.50
45283;DHT22;31023;44.994;1.796;2023-07-31T08:21:49;34.80;40.80
45283;DHT22;31023;44.994;1.796;2023-07-31T08:24:15;35.60;39.70
45283;DHT22;31023;44.994;1.796;2023-07-31T08:26:40;36.30;39.20
45283;DHT22;31023;44.994;1.796;2023-07-31T08:29:06;35.70;38.70
45283;DHT22;31023;44.994;1.796;2023-07-31T08:31:32;35.90;37.60
45283;DHT22;31023;44.994;1.796;2023-07-31T08:33:58;35.90;37.30
45283;DHT22;31023;44.994;1.796;2023-07-31T08:36:23;36.50;37.60
45283;DHT22;31023;44.994;1.796;2023-07-31T08:38:49;36.50;38.70
45283;DHT22;31023;44.994;1.796;2023-07-31T08:41:15;36.70;37.70
45283;DHT22;31023;44.994;1.796;2023-07-31T08:43:49;37.20;36.40
45283;DHT22;31023;44.994;1.796;2023-07-31T08:46:15;37.20;37.60
45283;DHT22;31023;44.994;1.796;2023-07-31T08:48:42;37.30;36.80
45283;DHT22;31023;44.994;1.796;2023-07-31T08:51:08;37.50;37.00
45283;DHT22;31023;44.994;1.796;2023-07-31T08:53:34;37.50;35.90
45283;DHT22;31023;44.994;1.796;2023-07-31T08:56:00;37.60;36.10
45283;DHT22;31023;44.994;1.796;2023-07-31T08:58:28;37.60;34.80
45283;DHT22;31023;44.994;1.796;2023-07-31T09:00:56;38.30;35.70
45283;DHT22;31023;44.994;1.796;2023-07-31T09:03:23;38.30;35.20
45283;DHT22;31023;44.994;1.796;2023-07-31T09:05:50;36.90;33.80
45283;DHT22;31023;44.994;1.796;2023-07-31T09:08:19;35.60;35.20
45283;DHT22;31023;44.994;1.796;2023-07-31T09:10:46;35.20;35.60
45283;DHT22;31023;44.994;1.796;2023-07-31T09:13:12;37.40;34.90
45283;DHT22;31023;44.994;1.796;2023-07-31T09:15:40;37.20;34.20
45283;DHT22;31023;44.994;1.796;2023-07-31T09:18:08;36.10;35.90
45283;DHT22;31023;44.994;1.796;2023-07-31T09:20:34;37.70;35.00
45283;DHT22;31023;44.994;1.796;2023-07-31T09:23:13;38.30;34.10
45283;DHT22;31023;44.994;1.796;2023-07-31T09:25:42;38.20;33.70
45283;DHT22;31023;44.994;1.796;2023-07-31T09:28:10;38.90;33.00
45283;DHT22;31023;44.994;1.796;2023-07-31T09:33:12;38.10;33.70
45283;DHT22;31023;44.994;1.796;2023-07-31T09:35:39;37.60;32.80
45283;DHT22;31023;44.994;1.796;2023-07-31T09:38:11;38.20;34.60
45283;DHT22;31023;44.994;1.796;2023-07-31T09:40:39;38.50;33.60
45283;DHT22;31023;44.994;1.796;2023-07-31T09:43:12;38.50;32.80
45283;DHT22;31023;44.994;1.796;2023-07-31T09:45:42;38.80;32.60
45283;DHT22;31023;44.994;1.796;2023-07-31T09:48:10;38.40;33.30
45283;DHT22;31023;44.994;1.796;2023-07-31T09:50:37;37.80;33.50
45283;DHT22;31023;44.994;1.796;2023-07-31T09:53:08;37.70;32.30
45283;DHT22;31023;44.994;1.796;2023-07-31T09:55:34;37.50;31.10
45283;DHT22;31023;44.994;1.796;2023-07-31T09:58:08;38.60;31.80
45283;DHT22;31023;44.994;1.796;2023-07-31T10:00:35;38.70;32.10
45283;DHT22;31023;44.994;1.796;2023-07-31T10:03:05;38.90;31.90
45283;DHT22;31023;44.994;1.796;2023-07-31T10:05:34;39.10;31.70
45283;DHT22;31023;44.994;1.796;2023-07-31T10:08:00;38.90;29.60
45283;DHT22;31023;44.994;1.796;2023-07-31T10:10:27;38.70;31.20
45283;DHT22;31023;44.994;1.796;2023-07-31T10:12:53;39.20;31.30
45283;DHT22;31023;44.994;1.796;2023-07-31T10:15:20;38.60;29.90
45283;DHT22;31023;44.994;1.796;2023-07-31T10:17:49;37.80;31.60
45283;DHT22;31023;44.994;1.796;2023-07-31T10:20:16;38.40;30.90
45283;DHT22;31023;44.994;1.796;2023-07-31T10:22:42;38.80;30.20
45283;DHT22;31023;44.994;1.796;2023-07-31T10:25:09;38.60;31.00
45283;DHT22;31023;44.994;1.796;2023-07-31T10:27:41;37.70;30.50
45283;DHT22;31023;44.994;1.796;2023-07-31T10:30:15;39.10;32.50
45283;DHT22;31023;44.994;1.796;2023-07-31T10:32:41;37.00;32.60
45283;DHT22;31023;44.994;1.796;2023-07-31T10:35:09;36.90;31.10
45283;DHT22;31023;44.994;1.796;2023-07-31T10:37:39;37.00;29.80
45283;DHT22;31023;44.994;1.796;2023-07-31T10:40:11;35.90;31.70
45283;DHT22;31023;44.994;1.796;2023-07-31T10:45:13;33.10;35.20
45283;DHT22;31023;44.994;1.796;2023-07-31T10:47:40;32.80;36.90
45283;DHT22;31023;44.994;1.796;2023-07-31T10:50:16;31.60;38.20
45283;DHT22;31023;44.994;1.796;2023-07-31T10:52:47;30.60;37.00
45283;DHT22;31023;44.994;1.796;2023-07-31T10:57:53;29.70;42.70
45283;DHT22;31023;44.994;1.796;2023-07-31T11:03:13;29.40;39.20
45283;DHT22;31023;44.994;1.796;2023-07-31T11:08:28;29.40;41.50
45283;DHT22;31023;44.994;1.796;2023-07-31T11:16:11;28.30;39.60
45283;DHT22;31023;44.994;1.796;2023-07-31T11:18:39;28.10;42.70
45283;DHT22;31023;44.994;1.796;2023-07-31T11:21:06;28.60;42.60
45283;DHT22;31023;44.994;1.796;2023-07-31T11:23:31;28.80;39.60
45283;DHT22;31023;44.994;1.796;2023-07-31T11:26:00;28.80;41.40
45283;DHT22;31023;44.994;1.796;2023-07-31T11:28:32;28.10;39.10
45283;DHT22;31023;44.994;1.796;2023-07-31T11:30:59;28.20;41.90
45283;DHT22;31023;44.994;1.796;2023-07-31T11:33:25;28.00;40.90
45283;DHT22;31023;44.994;1.796;2023-07-31T11:35:50;27.90;41.90
45283;DHT22;31023;44.994;1.796;2023-07-31T11:38:30;27.20;41.90
45283;DHT22;31023;44.994;1.796;2023-07-31T11:40:59;27.30;43.30
45283;DHT22;31023;44.994;1.796;2023-07-31T11:43:25;27.30;43.00
45283;DHT22;31023;44.994;1.796;2023-07-31T11:45:54;27.50;44.10
45283;DHT22;31023;44.994;1.796;2023-07-31T11:48:22;27.50;44.10
45283;DHT22;31023;44.994;1.796;2023-07-31T11:50:49;27.20;46.60
45283;DHT22;31023;44.994;1.796;2023-07-31T11:53:19;27.40;45.70
45283;DHT22;31023;44.994;1.796;2023-07-31T11:55:46;27.30;46.60
45283;DHT22;31023;44.994;1.796;2023-07-31T11:58:13;27.10;44.50
45283;DHT22;31023;44.994;1.796;2023-07-31T12:00:40;26.90;45.40
45283;DHT22;31023;44.994;1.796;2023-07-31T12:03:06;26.70;46.30
45283;DHT22;31023;44.994;1.796;2023-07-31T12:05:31;27.00;46.40
45283;DHT22;31023;44.994;1.796;2023-07-31T12:07:57;27.00;45.70
45283;DHT22;31023;44.994;1.796;2023-07-31T12:10:27;26.90;47.30
45283;DHT22;31023;44.994;1.796;2023-07-31T12:15:39;26.70;47.30
45283;DHT22;31023;44.994;1.796;2023-07-31T12:18:16;27.00;47.80
45283;DHT22;31023;44.994;1.796;2023-07-31T12:20:49;26.70;45.70
45283;DHT22;31023;44.994;1.796;2023-07-31T12:23:19;26.80;47.90
45283;DHT22;31023;44.994;1.796;2023-07-31T12:26:13;26.70;46.20
45283;DHT22;31023;44.994;1.796;2023-07-31T12:28:44;26.50;48.40
45283;DHT22;31023;44.994;1.796;2023-07-31T12:31:21;26.40;46.40
45283;DHT22;31023;44.994;1.796;2023-07-31T12:33:48;26.30;47.70
45283;DHT22;31023;44.994;1.796;2023-07-31T12:36:20;26.30;47.30
45283;DHT22;31023;44.994;1.796;2023-07-31T12:38:46;26.40;48.50
45283;DHT22;31023;44.994;1.796;2023-07-31T12:41:12;26.40;47.90
45283;DHT22;31023;44.994;1.796;2023-07-31T12:43:40;26.30;48.60
45283;DHT22;31023;44.994;1.796;2023-07-31T12:46:07;26.10;49.50
45283;DHT22;31023;44.994;1.796;2023-07-31T12:48:36;26.20;48.60
45283;DHT22;31023;44.994;1.796;2023-07-31T12:51:02;26.30;49.10
45283;DHT22;31023;44.994;1.796;2023-07-31T12:53:28;26.20;48.70
45283;DHT22;31023;44.994;1.796;2023-07-31T12:55:55;26.30;49.90
45283;DHT22;31023;44.994;1.796;2023-07-31T12:58:21;26.20;48.00
45283;DHT22;31023;44.994;1.796;2023-07-31T13:00:47;26.10;47.50
45283;DHT22;31023;44.994;1.796;2023-07-31T13:03:12;26.00;48.50
45283;DHT22;31023;44.994;1.796;2023-07-31T13:05:38;26.30;51.10
45283;DHT22;31023;44.994;1.796;2023-07-31T13:08:04;26.50;49.50
45283;DHT22;31023;44.994;1.796;2023-07-31T13:10:29;26.20;49.40
45283;DHT22;31023;44.994;1.796;2023-07-31T13:12:56;26.10;48.30
45283;DHT22;31023;44.994;1.796;2023-07-31T13:15:21;26.10;46.90
45283;DHT22;31023;44.994;1.796;2023-07-31T13:17:47;26.10;48.70
45283;DHT22;31023;44.994;1.796;2023-07-31T13:20:13;26.10;48.90
45283;DHT22;31023;44.994;1.796;2023-07-31T13:22:38;26.10;49.50
45283;DHT22;31023;44.994;1.796;2023-07-31T13:25:05;26.00;48.10
45283;DHT22;31023;44.994;1.796;2023-07-31T13:27:30;26.00;49.20
45283;DHT22;31023;44.994;1.796;2023-07-31T13:29:56;26.00;49.10
45283;DHT22;31023;44.994;1.796;2023-07-31T13:32:22;26.10;47.80
45283;DHT22;31023;44.994;1.796;2023-07-31T13:34:48;26.10;52.90
45283;DHT22;31023;44.994;1.796;2023-07-31T13:37:14;26.10;50.20
45283;DHT22;31023;44.994;1.796;2023-07-31T13:39:40;26.00;49.80
45283;DHT22;31023;44.994;1.796;2023-07-31T13:42:07;26.20;50.50
45283;DHT22;31023;44.994;1.796;2023-07-31T13:44:37;26.10;49.00
45283;DHT22;31023;44.994;1.796;2023-07-31T13:47:03;26.00;49.70
45283;DHT22;31023;44.994;1.796;2023-07-31T13:49:30;26.00;49.10
45283;DHT22;31023;44.994;1.796;2023-07-31T13:51:56;26.10;49.90
45283;DHT22;31023;44.994;1.796;2023-07-31T13:54:23;26.10;50.50
45283;DHT22;31023;44.994;1.796;2023-07-31T13:56:48;26.10;51.00
45283;DHT22;31023;44.994;1.796;2023-07-31T13:59:14;26.40;49.80
45283;DHT22;31023;44.994;1.796;2023-07-31T14:01:41;26.20;49.80
45283;DHT22;31023;44.994;1.796;2023-07-31T14:04:07;26.20;50.30
45283;DHT22;31023;44.994;1.796;2023-07-31T14:06:33;26.10;49.60
45283;DHT22;31023;44.994;1.796;2023-07-31T14:08:58;26.20;50.30
45283;DHT22;31023;44.994;1.796;2023-07-31T14:11:24;26.20;50.20
45283;DHT22;31023;44.994;1.796;2023-07-31T14:13:50;26.10;49.80
45283;DHT22;31023;44.994;1.796;2023-07-31T14:16:16;26.00;50.20
45283;DHT22;31023;44.994;1.796;2023-07-31T14:18:42;25.80;48.40
45283;DHT22;31023;44.994;1.796;2023-07-31T14:21:08;25.90;49.70
45283;DHT22;31023;44.994;1.796;2023-07-31T14:23:34;26.10;50.90
45283;DHT22;31023;44.994;1.796;2023-07-31T14:26:00;26.20;51.80
45283;DHT22;31023;44.994;1.796;2023-07-31T14:28:26;26.00;50.40
45283;DHT22;31023;44.994;1.796;2023-07-31T14:30:51;26.00;48.70
45283;DHT22;31023;44.994;1.796;2023-07-31T14:33:17;25.90;48.30
45283;DHT22;31023;44.994;1.796;2023-07-31T14:35:43;25.70;48.60
45283;DHT22;31023;44.994;1.796;2023-07-31T14:38:08;25.90;52.60
45283;DHT22;31023;44.994;1.796;2023-07-31T14:40:34;26.00;51.60
45283;DHT22;31023;44.994;1.796;2023-07-31T14:43:00;25.90;49.50
45283;DHT22;31023;44.994;1.796;2023-07-31T14:45:26;25.90;50.50
45283;DHT22;31023;44.994;1.796;2023-07-31T14:47:51;25.90;50.70
45283;DHT22;31023;44.994;1.796;2023-07-31T14:50:17;26.00;52.10
45283;DHT22;31023;44.994;1.796;2023-07-31T14:52:43;25.90;50.30
45283;DHT22;31023;44.994;1.796;2023-07-31T14:55:09;25.90;49.70
45283;DHT22;31023;44.994;1.796;2023-07-31T14:57:35;25.90;50.40
45283;DHT22;31023;44.994;1.796;2023-07-31T15:00:00;26.00;50.50
45283;DHT22;31023;44.994;1.796;2023-07-31T15:02:26;25.70;49.40
45283;DHT22;31023;44.994;1.796;2023-07-31T15:04:53;25.90;51.20
45283;DHT22;31023;44.994;1.796;2023-07-31T15:07:18;26.00;51.60
45283;DHT22;31023;44.994;1.796;2023-07-31T15:09:44;25.90;51.10
45283;DHT22;31023;44.994;1.796;2023-07-31T15:12:10;25.90;51.50
45283;DHT22;31023;44.994;1.796;2023-07-31T15:14:35;25.90;51.70
45283;DHT22;31023;44.994;1.796;2023-07-31T15:17:01;26.00;49.70
45283;DHT22;31023;44.994;1.796;2023-07-31T15:19:27;25.80;51.70
45283;DHT22;31023;44.994;1.796;2023-07-31T15:21:52;25.90;51.10
45283;DHT22;31023;44.994;1.796;2023-07-31T15:24:18;25.80;49.80
45283;DHT22;31023;44.994;1.796;2023-07-31T15:26:45;25.70;51.20
45283;DHT22;31023;44.994;1.796;2023-07-31T15:29:11;25.70;49.20
45283;DHT22;31023;44.994;1.796;2023-07-31T15:31:43;25.70;50.50
45283;DHT22;31023;44.994;1.796;2023-07-31T15:34:09;25.80;51.60
45283;DHT22;31023;44.994;1.796;2023-07-31T15:36:34;25.70;51.00
45283;DHT22;31023;44.994;1.796;2023-07-31T15:39:00;25.60;50.80
45283;DHT22;31023;44.994;1.796;2023-07-31T15:41:26;25.70;51.30
45283;DHT22;31023;44.994;1.796;2023-07-31T15:43:52;25.60;50.50
45283;DHT22;31023;44.994;1.796;2023-07-31T15:46:18;25.60;51.50
45283;DHT22;31023;44.994;1.796;2023-07-31T15:48:44;25.60;50.90
45283;DHT22;31023;44.994;1.796;2023-07-31T15:51:10;25.50;51.40
45283;DHT22;31023;44.994;1.796;2023-07-31T15:53:36;25.50;51.20
45283;DHT22;31023;44.994;1.796;2023-07-31T15:56:02;25.40;50.80